sensor_id;sensor_type;location;lat;lon;timestamp;P1;durP1;ratioP1;P2;durP2;ratioP2
69854;SDS011;57146;48.140;16.304;2023-08-06T00:00:42;0.20;;;0.00;;
69854;SDS011;57146;48.140;16.304;2023-08-06T00:03:33;0.08;;;0.00;;
69854;SDS011;57146;48.140;16.304;2023-08-06T00:06:00;1.07;;;0.00;;
69854;SDS011;57146;48.140;16.304;2023-08-06T00:08:27;0.10;;;0.00;;
69854;SDS011;57146;48.140;16.304;2023-08-06T00:10:54;0.28;;;0.00;;
69854;SDS011;57146;48.140;16.304;2023-08-06T00:13:23;0.90;;;0.00;;
69854;SDS011;57146;48.140;16.304;2023-08-06T00:15:50;0.10;;;0.00;;
69854;SDS011;57146;48.140;16.304;2023-08-06T00:18:17;0.27;;;0.00;;
69854;SDS011;57146;48.140;16.304;2023-08-06T00:20:44;0.00;;;0.00;;
69854;SDS011;57146;48.140;16.304;2023-08-06T00:23:12;0.22;;;0.00;;
69854;SDS011;57146;48.140;16.304;2023-08-06T00:26:00;0.20;;;0.00;;
69854;SDS011;57146;48.140;16.304;2023-08-06T00:28:28;0.10;;;0.00;;
69854;SDS011;57146;48.140;16.304;2023-08-06T00:30:56;0.20;;;0.00;;
69854;SDS011;57146;48.140;16.304;2023-08-06T00:33:24;0.22;;;0.00;;
69854;SDS011;57146;48.140;16.304;2023-08-06T00:35:51;0.20;;;0.00;;
69854;SDS011;57146;48.140;16.304;2023-08-06T00:38:19;0.10;;;0.00;;
69854;SDS011;57146;48.140;16.304;2023-08-06T00:40:47;0.20;;;0.00;;
69854;SDS011;57146;48.140;16.304;2023-08-06T00:43:15;0.20;;;0.00;;
69854;SDS011;57146;48.140;16.304;2023-08-06T00:45:42;0.13;;;0.00;;
69854;SDS011;57146;48.140;16.304;2023-08-06T00:48:10;0.20;;;0.00;;
69854;SDS011;57146;48.140;16.304;2023-08-06T00:50:38;0.10;;;0.00;;
69854;SDS011;57146;48.140;16.304;2023-08-06T00:53:05;0.20;;;0.00;;
69854;SDS011;57146;48.140;16.304;2023-08-06T00:55:33;0.10;;;0.00;;
69854;SDS011;57146;48.140;16.304;2023-08-06T00:58:00;0.25;;;0.00;;
69854;SDS011;57146;48.140;16.304;2023-08-06T01:00:28;0.20;;;0.00;;
69854;SDS011;57146;48.140;16.304;2023-08-06T01:02:56;0.20;;;0.00;;
69854;SDS011;57146;48.140;16.304;2023-08-06T01:05:23;0.22;;;0.00;;
69854;SDS011;57146;48.140;16.304;2023-08-06T01:07:56;0.00;;;0.00;;
69854;SDS011;57146;48.140;16.304;2023-08-06T01:13:18;0.20;;;0.00;;
69854;SDS011;57146;48.140;16.304;2023-08-06T01:16:00;0.10;;;0.00;;
69854;SDS011;57146;48.140;16.304;2023-08-06T01:18:30;1.15;;;0.00;;
69854;SDS011;57146;48.140;16.304;2023-08-06T01:21:01;0.10;;;0.00;;
69854;SDS011;57146;48.140;16.304;2023-08-06T01:23:28;0.00;;;0.00;;
69854;SDS011;57146;48.140;16.304;2023-08-06T01:26:00;0.17;;;0.00;;
69854;SDS011;57146;48.140;16.304;2023-08-06T01:28:51;0.10;;;0.00;;
69854;SDS011;57146;48.140;16.304;2023-08-06T01:31:27;0.45;;;0.00;;
69854;SDS011;57146;48.140;16.304;2023-08-06T01:33:58;0.10;;;0.00;;
69854;SDS011;57146;48.140;16.304;2023-08-06T01:36:27;0.00;;;0.00;;
69854;SDS011;57146;48.140;16.304;2023-08-06T01:38:55;0.10;;;0.00;;
69854;SDS011;57146;48.140;16.304;2023-08-06T01:41:24;0.60;;;0.00;;
69854;SDS011;57146;48.140;16.304;2023-08-06T01:43:51;0.40;;;0.00;;
69854;SDS011;57146;48.140;16.304;2023-08-06T01:46:17;0.30;;;0.00;;
69854;SDS011;57146;48.140;16.304;2023-08-06T01:48:45;0.40;;;0.00;;
69854;SDS011;57146;48.140;16.304;2023-08-06T01:51:13;0.30;;;0.00;;
69854;SDS011;57146;48.140;16.304;2023-08-06T01:53:43;1.30;;;0.00;;
69854;SDS011;57146;48.140;16.304;2023-08-06T01:56:11;0.65;;;0.00;;
69854;SDS011;57146;48.140;16.304;2023-08-06T01:58:38;0.50;;;0.00;;
69854;SDS011;57146;48.140;16.304;2023-08-06T02:01:05;0.40;;;0.00;;
69854;SDS011;57146;48.140;16.304;2023-08-06T02:03:32;0.47;;;0.00;;
69854;SDS011;57146;48.140;16.304;2023-08-06T02:05:59;1.65;;;0.00;;
69854;SDS011;57146;48.140;16.304;2023-08-06T02:08:27;0.90;;;0.00;;
69854;SDS011;57146;48.140;16.304;2023-08-06T02:10:55;0.80;;;0.00;;
69854;SDS011;57146;48.140;16.304;2023-08-06T02:13:22;0.50;;;0.00;;
69854;SDS011;57146;48.140;16.304;2023-08-06T02:15:49;0.80;;;0.00;;
69854;SDS011;57146;48.140;16.304;2023-08-06T02:18:17;0.70;;;0.00;;
69854;SDS011;57146;48.140;16.304;2023-08-06T02:20:54;0.77;;;0.00;;
69854;SDS011;57146;48.140;16.304;2023-08-06T02:23:23;0.80;;;0.00;;
69854;SDS011;57146;48.140;16.304;2023-08-06T02:26:00;0.60;;;0.00;;
69854;SDS011;57146;48.140;16.304;2023-08-06T02:28:30;0.88;;;0.00;;
69854;SDS011;57146;48.140;16.304;2023-08-06T02:30:57;0.57;;;0.00;;
69854;SDS011;57146;48.140;16.304;2023-08-06T02:33:27;0.73;;;0.00;;
69854;SDS011;57146;48.140;16.304;2023-08-06T02:36:00;0.53;;;0.00;;
69854;SDS011;57146;48.140;16.304;2023-08-06T02:38:28;0.90;;;0.00;;
69854;SDS011;57146;48.140;16.304;2023-08-06T02:41:21;0.45;;;0.00;;
69854;SDS011;57146;48.140;16.304;2023-08-06T02:43:50;0.47;;;0.00;;
69854;SDS011;57146;48.140;16.304;2023-08-06T02:46:17;0.73;;;0.00;;
69854;SDS011;57146;48.140;16.304;2023-08-06T02:48:44;2.20;;;0.10;;
69854;SDS011;57146;48.140;16.304;2023-08-06T02:51:12;0.63;;;0.00;;
69854;SDS011;57146;48.140;16.304;2023-08-06T02:53:41;0.73;;;0.00;;
69854;SDS011;57146;48.140;16.304;2023-08-06T02:56:10;0.90;;;0.00;;
69854;SDS011;57146;48.140;16.304;2023-08-06T02:58:54;1.45;;;0.00;;
69854;SDS011;57146;48.140;16.304;2023-08-06T03:01:52;1.03;;;0.00;;
69854;SDS011;57146;48.140;16.304;2023-08-06T03:04:31;0.68;;;0.00;;
69854;SDS011;57146;48.140;16.304;2023-08-06T03:06:59;1.00;;;0.00;;
69854;SDS011;57146;48.140;16.304;2023-08-06T03:09:36;1.70;;;0.00;;
69854;SDS011;57146;48.140;16.304;2023-08-06T03:15:01;1.23;;;0.00;;
69854;SDS011;57146;48.140;16.304;2023-08-06T03:17:29;1.25;;;0.03;;
69854;SDS011;57146;48.140;16.304;2023-08-06T03:19:57;3.72;;;0.10;;
69854;SDS011;57146;48.140;16.304;2023-08-06T03:22:25;1.20;;;0.10;;
69854;SDS011;57146;48.140;16.304;2023-08-06T03:24:52;1.52;;;0.00;;
69854;SDS011;57146;48.140;16.304;2023-08-06T03:27:24;1.63;;;0.10;;
69854;SDS011;57146;48.140;16.304;2023-08-06T03:29:51;1.40;;;0.05;;
69854;SDS011;57146;48.140;16.304;2023-08-06T03:32:21;2.00;;;0.10;;
69854;SDS011;57146;48.140;16.304;2023-08-06T03:34:49;1.40;;;0.10;;
69854;SDS011;57146;48.140;16.304;2023-08-06T03:37:16;1.65;;;0.20;;
69854;SDS011;57146;48.140;16.304;2023-08-06T03:39:43;2.27;;;0.20;;
69854;SDS011;57146;48.140;16.304;2023-08-06T03:42:10;2.50;;;0.28;;
69854;SDS011;57146;48.140;16.304;2023-08-06T03:44:38;1.85;;;0.10;;
69854;SDS011;57146;48.140;16.304;2023-08-06T03:47:07;1.50;;;0.20;;
69854;SDS011;57146;48.140;16.304;2023-08-06T03:49:34;1.50;;;0.10;;
69854;SDS011;57146;48.140;16.304;2023-08-06T03:52:04;2.00;;;0.10;;
69854;SDS011;57146;48.140;16.304;2023-08-06T03:54:33;1.92;;;0.10;;
69854;SDS011;57146;48.140;16.304;2023-08-06T03:57:01;1.48;;;0.10;;
69854;SDS011;57146;48.140;16.304;2023-08-06T03:59:28;2.22;;;0.10;;
69854;SDS011;57146;48.140;16.304;2023-08-06T04:01:56;1.90;;;0.20;;
69854;SDS011;57146;48.140;16.304;2023-08-06T04:04:23;1.90;;;0.20;;
69854;SDS011;57146;48.140;16.304;2023-08-06T04:06:50;1.77;;;0.20;;
69854;SDS011;57146;48.140;16.304;2023-08-06T04:09:21;2.42;;;0.10;;
69854;SDS011;57146;48.140;16.304;2023-08-06T04:11:49;1.73;;;0.10;;
69854;SDS011;57146;48.140;16.304;2023-08-06T04:14:17;1.30;;;0.10;;
69854;SDS011;57146;48.140;16.304;2023-08-06T04:16:44;1.80;;;0.20;;
69854;SDS011;57146;48.140;16.304;2023-08-06T04:19:13;1.67;;;0.10;;
69854;SDS011;57146;48.140;16.304;2023-08-06T04:21:41;1.58;;;0.10;;
69854;SDS011;57146;48.140;16.304;2023-08-06T04:24:09;1.63;;;0.10;;
69854;SDS011;57146;48.140;16.304;2023-08-06T04:26:37;1.92;;;0.17;;
69854;SDS011;57146;48.140;16.304;2023-08-06T04:29:04;2.33;;;0.20;;
69854;SDS011;57146;48.140;16.304;2023-08-06T04:31:32;1.90;;;0.20;;
69854;SDS011;57146;48.140;16.304;2023-08-06T04:34:00;1.60;;;0.10;;
69854;SDS011;57146;48.140;16.304;2023-08-06T04:36:28;1.80;;;0.30;;
69854;SDS011;57146;48.140;16.304;2023-08-06T04:38:59;2.45;;;0.20;;
69854;SDS011;57146;48.140;16.304;2023-08-06T04:41:25;1.87;;;0.20;;
69854;SDS011;57146;48.140;16.304;2023-08-06T04:43:53;2.17;;;0.28;;
69854;SDS011;57146;48.140;16.304;2023-08-06T04:46:22;1.80;;;0.10;;
69854;SDS011;57146;48.140;16.304;2023-08-06T04:48:49;1.65;;;0.10;;
69854;SDS011;57146;48.140;16.304;2023-08-06T04:51:17;2.00;;;0.20;;
69854;SDS011;57146;48.140;16.304;2023-08-06T04:53:44;1.97;;;0.23;;
69854;SDS011;57146;48.140;16.304;2023-08-06T04:56:11;2.35;;;0.10;;
69854;SDS011;57146;48.140;16.304;2023-08-06T04:58:42;1.58;;;0.10;;
69854;SDS011;57146;48.140;16.304;2023-08-06T05:01:09;2.05;;;0.20;;
69854;SDS011;57146;48.140;16.304;2023-08-06T05:03:37;1.90;;;0.20;;
69854;SDS011;57146;48.140;16.304;2023-08-06T05:06:05;1.90;;;0.30;;
69854;SDS011;57146;48.140;16.304;2023-08-06T05:08:34;2.15;;;0.30;;
69854;SDS011;57146;48.140;16.304;2023-08-06T05:11:01;2.47;;;0.20;;
69854;SDS011;57146;48.140;16.304;2023-08-06T05:13:28;2.78;;;0.30;;
69854;SDS011;57146;48.140;16.304;2023-08-06T05:16:20;2.65;;;0.20;;
69854;SDS011;57146;48.140;16.304;2023-08-06T05:18:48;1.60;;;0.10;;
69854;SDS011;57146;48.140;16.304;2023-08-06T05:21:15;1.70;;;0.10;;
69854;SDS011;57146;48.140;16.304;2023-08-06T05:23:43;2.22;;;0.10;;
69854;SDS011;57146;48.140;16.304;2023-08-06T05:26:10;1.75;;;0.10;;
69854;SDS011;57146;48.140;16.304;2023-08-06T05:28:38;1.35;;;0.10;;
69854;SDS011;57146;48.140;16.304;2023-08-06T05:31:08;1.80;;;0.17;;
69854;SDS011;57146;48.140;16.304;2023-08-06T05:33:35;1.83;;;0.15;;
69854;SDS011;57146;48.140;16.304;2023-08-06T05:36:02;2.83;;;0.20;;
69854;SDS011;57146;48.140;16.304;2023-08-06T05:38:29;2.17;;;0.32;;
69854;SDS011;57146;48.140;16.304;2023-08-06T05:40:56;2.08;;;0.30;;
69854;SDS011;57146;48.140;16.304;2023-08-06T05:43:30;2.13;;;0.30;;
69854;SDS011;57146;48.140;16.304;2023-08-06T05:45:57;2.63;;;0.32;;
69854;SDS011;57146;48.140;16.304;2023-08-06T05:48:25;3.58;;;0.40;;
69854;SDS011;57146;48.140;16.304;2023-08-06T05:50:52;2.83;;;0.30;;
69854;SDS011;57146;48.140;16.304;2023-08-06T05:53:19;3.90;;;0.40;;
69854;SDS011;57146;48.140;16.304;2023-08-06T05:55:46;2.30;;;0.23;;
69854;SDS011;57146;48.140;16.304;2023-08-06T05:58:14;2.05;;;0.30;;
69854;SDS011;57146;48.140;16.304;2023-08-06T06:00:41;1.80;;;0.25;;
69854;SDS011;57146;48.140;16.304;2023-08-06T06:03:08;1.80;;;0.20;;
69854;SDS011;57146;48.140;16.304;2023-08-06T06:05:37;2.33;;;0.20;;
69854;SDS011;57146;48.140;16.304;2023-08-06T06:08:04;1.83;;;0.30;;
69854;SDS011;57146;48.140;16.304;2023-08-06T06:10:32;1.83;;;0.30;;
69854;SDS011;57146;48.140;16.304;2023-08-06T06:13:01;2.63;;;0.20;;
69854;SDS011;57146;48.140;16.304;2023-08-06T06:15:28;2.03;;;0.20;;
69854;SDS011;57146;48.140;16.304;2023-08-06T06:17:54;1.75;;;0.10;;
69854;SDS011;57146;48.140;16.304;2023-08-06T06:20:21;2.50;;;0.20;;
69854;SDS011;57146;48.140;16.304;2023-08-06T06:22:48;3.30;;;0.30;;
69854;SDS011;57146;48.140;16.304;2023-08-06T06:25:19;3.50;;;0.32;;
69854;SDS011;57146;48.140;16.304;2023-08-06T06:27:46;1.88;;;0.20;;
69854;SDS011;57146;48.140;16.304;2023-08-06T06:30:17;1.75;;;0.15;;
69854;SDS011;57146;48.140;16.304;2023-08-06T06:32:44;2.27;;;0.10;;
69854;SDS011;57146;48.140;16.304;2023-08-06T06:35:12;1.52;;;0.10;;
69854;SDS011;57146;48.140;16.304;2023-08-06T06:37:40;1.77;;;0.10;;
69854;SDS011;57146;48.140;16.304;2023-08-06T06:40:07;1.80;;;0.10;;
69854;SDS011;57146;48.140;16.304;2023-08-06T06:42:34;1.80;;;0.10;;
69854;SDS011;57146;48.140;16.304;2023-08-06T06:45:07;1.50;;;0.10;;
69854;SDS011;57146;48.140;16.304;2023-08-06T06:47:35;1.30;;;0.03;;
69854;SDS011;57146;48.140;16.304;2023-08-06T06:50:02;1.75;;;0.20;;
69854;SDS011;57146;48.140;16.304;2023-08-06T06:52:29;1.13;;;0.10;;
69854;SDS011;57146;48.140;16.304;2023-08-06T06:54:58;1.20;;;0.00;;
69854;SDS011;57146;48.140;16.304;2023-08-06T06:57:25;2.73;;;0.10;;
69854;SDS011;57146;48.140;16.304;2023-08-06T06:59:52;1.27;;;0.00;;
69854;SDS011;57146;48.140;16.304;2023-08-06T07:02:19;0.90;;;0.00;;
69854;SDS011;57146;48.140;16.304;2023-08-06T07:04:46;1.45;;;0.15;;
69854;SDS011;57146;48.140;16.304;2023-08-06T07:07:13;1.20;;;0.05;;
69854;SDS011;57146;48.140;16.304;2023-08-06T07:09:40;1.80;;;0.00;;
69854;SDS011;57146;48.140;16.304;2023-08-06T07:12:07;1.83;;;0.00;;
69854;SDS011;57146;48.140;16.304;2023-08-06T07:14:34;1.67;;;0.10;;
69854;SDS011;57146;48.140;16.304;2023-08-06T07:17:01;1.20;;;0.00;;
69854;SDS011;57146;48.140;16.304;2023-08-06T07:19:30;1.33;;;0.10;;
69854;SDS011;57146;48.140;16.304;2023-08-06T07:21:57;1.60;;;0.10;;
69854;SDS011;57146;48.140;16.304;2023-08-06T07:24:24;1.50;;;0.00;;
69854;SDS011;57146;48.140;16.304;2023-08-06T07:26:51;1.50;;;0.10;;
69854;SDS011;57146;48.140;16.304;2023-08-06T07:29:18;1.25;;;0.10;;
69854;SDS011;57146;48.140;16.304;2023-08-06T07:31:45;1.30;;;0.10;;
69854;SDS011;57146;48.140;16.304;2023-08-06T07:34:12;1.50;;;0.10;;
69854;SDS011;57146;48.140;16.304;2023-08-06T07:36:39;1.65;;;0.15;;
69854;SDS011;57146;48.140;16.304;2023-08-06T07:39:06;1.80;;;0.00;;
69854;SDS011;57146;48.140;16.304;2023-08-06T07:41:34;2.17;;;0.10;;
69854;SDS011;57146;48.140;16.304;2023-08-06T07:44:01;1.75;;;0.10;;
69854;SDS011;57146;48.140;16.304;2023-08-06T07:46:28;1.20;;;0.00;;
69854;SDS011;57146;48.140;16.304;2023-08-06T07:48:55;1.48;;;0.10;;
69854;SDS011;57146;48.140;16.304;2023-08-06T07:51:22;2.03;;;0.20;;
69854;SDS011;57146;48.140;16.304;2023-08-06T07:53:49;1.52;;;0.10;;
69854;SDS011;57146;48.140;16.304;2023-08-06T07:56:16;1.30;;;0.10;;
69854;SDS011;57146;48.140;16.304;2023-08-06T07:58:43;1.73;;;0.10;;
69854;SDS011;57146;48.140;16.304;2023-08-06T08:01:10;1.63;;;0.10;;
69854;SDS011;57146;48.140;16.304;2023-08-06T08:03:37;2.05;;;0.30;;
69854;SDS011;57146;48.140;16.304;2023-08-06T08:06:28;1.45;;;0.00;;
69854;SDS011;57146;48.140;16.304;2023-08-06T08:08:55;1.50;;;0.10;;
69854;SDS011;57146;48.140;16.304;2023-08-06T08:11:22;1.53;;;0.10;;
69854;SDS011;57146;48.140;16.304;2023-08-06T08:13:48;2.85;;;0.20;;
69854;SDS011;57146;48.140;16.304;2023-08-06T08:16:15;2.03;;;0.20;;
69854;SDS011;57146;48.140;16.304;2023-08-06T08:18:42;1.73;;;0.10;;
69854;SDS011;57146;48.140;16.304;2023-08-06T08:21:09;1.80;;;0.10;;
69854;SDS011;57146;48.140;16.304;2023-08-06T08:23:36;1.73;;;0.20;;
69854;SDS011;57146;48.140;16.304;2023-08-06T08:26:03;1.58;;;0.10;;
69854;SDS011;57146;48.140;16.304;2023-08-06T08:28:30;1.80;;;0.20;;
69854;SDS011;57146;48.140;16.304;2023-08-06T08:30:57;1.60;;;0.10;;
69854;SDS011;57146;48.140;16.304;2023-08-06T08:33:24;1.75;;;0.10;;
69854;SDS011;57146;48.140;16.304;2023-08-06T08:35:51;1.97;;;0.20;;
69854;SDS011;57146;48.140;16.304;2023-08-06T08:38:18;1.77;;;0.20;;
69854;SDS011;57146;48.140;16.304;2023-08-06T08:40:45;2.80;;;0.10;;
69854;SDS011;57146;48.140;16.304;2023-08-06T08:43:14;1.73;;;0.20;;
69854;SDS011;57146;48.140;16.304;2023-08-06T08:45:42;2.13;;;0.28;;
69854;SDS011;57146;48.140;16.304;2023-08-06T08:48:11;2.00;;;0.20;;
69854;SDS011;57146;48.140;16.304;2023-08-06T08:50:39;1.90;;;0.20;;
69854;SDS011;57146;48.140;16.304;2023-08-06T08:53:06;2.00;;;0.30;;
69854;SDS011;57146;48.140;16.304;2023-08-06T08:55:35;2.80;;;0.30;;
69854;SDS011;57146;48.140;16.304;2023-08-06T08:58:03;7.07;;;0.60;;
69854;SDS011;57146;48.140;16.304;2023-08-06T09:00:30;2.07;;;0.30;;
69854;SDS011;57146;48.140;16.304;2023-08-06T09:02:58;2.47;;;0.30;;
69854;SDS011;57146;48.140;16.304;2023-08-06T09:05:26;2.00;;;0.30;;
69854;SDS011;57146;48.140;16.304;2023-08-06T09:07:56;3.10;;;1.13;;
69854;SDS011;57146;48.140;16.304;2023-08-06T09:10:33;2.25;;;0.50;;
69854;SDS011;57146;48.140;16.304;2023-08-06T09:13:00;2.20;;;0.40;;
69854;SDS011;57146;48.140;16.304;2023-08-06T09:15:28;2.63;;;0.57;;
69854;SDS011;57146;48.140;16.304;2023-08-06T09:17:55;2.22;;;0.43;;
69854;SDS011;57146;48.140;16.304;2023-08-06T09:20:23;2.08;;;0.40;;
69854;SDS011;57146;48.140;16.304;2023-08-06T09:22:52;1.90;;;0.40;;
69854;SDS011;57146;48.140;16.304;2023-08-06T09:25:22;2.37;;;0.50;;
69854;SDS011;57146;48.140;16.304;2023-08-06T09:27:50;2.25;;;0.43;;
69854;SDS011;57146;48.140;16.304;2023-08-06T09:30:30;2.50;;;0.68;;
69854;SDS011;57146;48.140;16.304;2023-08-06T09:33:02;3.40;;;0.73;;
69854;SDS011;57146;48.140;16.304;2023-08-06T09:35:29;4.30;;;0.90;;
69854;SDS011;57146;48.140;16.304;2023-08-06T09:38:07;3.30;;;0.93;;
69854;SDS011;57146;48.140;16.304;2023-08-06T09:40:36;2.47;;;0.50;;
69854;SDS011;57146;48.140;16.304;2023-08-06T09:43:03;3.38;;;0.90;;
69854;SDS011;57146;48.140;16.304;2023-08-06T09:45:33;3.97;;;0.73;;
69854;SDS011;57146;48.140;16.304;2023-08-06T09:48:08;3.70;;;1.40;;
69854;SDS011;57146;48.140;16.304;2023-08-06T09:50:36;3.00;;;0.80;;
69854;SDS011;57146;48.140;16.304;2023-08-06T09:53:05;3.97;;;0.88;;
69854;SDS011;57146;48.140;16.304;2023-08-06T09:55:33;3.10;;;0.70;;
69854;SDS011;57146;48.140;16.304;2023-08-06T09:58:00;3.25;;;1.00;;
69854;SDS011;57146;48.140;16.304;2023-08-06T10:00:30;3.85;;;0.82;;
69854;SDS011;57146;48.140;16.304;2023-08-06T10:03:01;3.60;;;1.10;;
69854;SDS011;57146;48.140;16.304;2023-08-06T10:05:35;3.92;;;1.25;;
69854;SDS011;57146;48.140;16.304;2023-08-06T10:08:03;3.17;;;0.90;;
69854;SDS011;57146;48.140;16.304;2023-08-06T10:10:33;3.40;;;0.80;;
69854;SDS011;57146;48.140;16.304;2023-08-06T10:13:02;3.15;;;0.82;;
69854;SDS011;57146;48.140;16.304;2023-08-06T10:15:33;3.07;;;0.90;;
69854;SDS011;57146;48.140;16.304;2023-08-06T10:18:00;3.30;;;1.00;;
69854;SDS011;57146;48.140;16.304;2023-08-06T10:20:32;3.00;;;1.02;;
69854;SDS011;57146;48.140;16.304;2023-08-06T10:23:05;2.92;;;0.70;;
69854;SDS011;57146;48.140;16.304;2023-08-06T10:25:33;3.03;;;0.98;;
69854;SDS011;57146;48.140;16.304;2023-08-06T10:28:08;5.47;;;1.00;;
69854;SDS011;57146;48.140;16.304;2023-08-06T10:30:43;4.25;;;0.90;;
69854;SDS011;57146;48.140;16.304;2023-08-06T10:33:09;3.75;;;0.90;;
69854;SDS011;57146;48.140;16.304;2023-08-06T10:35:41;2.88;;;0.90;;
69854;SDS011;57146;48.140;16.304;2023-08-06T10:38:21;4.10;;;0.80;;
69854;SDS011;57146;48.140;16.304;2023-08-06T10:43:44;2.35;;;0.43;;
69854;SDS011;57146;48.140;16.304;2023-08-06T10:46:25;2.92;;;0.80;;
69854;SDS011;57146;48.140;16.304;2023-08-06T10:48:57;3.45;;;0.70;;
69854;SDS011;57146;48.140;16.304;2023-08-06T10:51:25;4.00;;;0.73;;
69854;SDS011;57146;48.140;16.304;2023-08-06T10:53:52;2.80;;;0.77;;
69854;SDS011;57146;48.140;16.304;2023-08-06T10:56:22;6.32;;;1.00;;
69854;SDS011;57146;48.140;16.304;2023-08-06T10:58:52;3.65;;;0.80;;
69854;SDS011;57146;48.140;16.304;2023-08-06T11:01:23;3.55;;;0.80;;
69854;SDS011;57146;48.140;16.304;2023-08-06T11:03:51;2.60;;;0.50;;
69854;SDS011;57146;48.140;16.304;2023-08-06T11:06:19;2.97;;;0.57;;
69854;SDS011;57146;48.140;16.304;2023-08-06T11:08:52;2.80;;;0.40;;
69854;SDS011;57146;48.140;16.304;2023-08-06T11:11:22;4.82;;;0.60;;
69854;SDS011;57146;48.140;16.304;2023-08-06T11:13:50;2.38;;;0.40;;
69854;SDS011;57146;48.140;16.304;2023-08-06T11:16:18;2.80;;;0.40;;
69854;SDS011;57146;48.140;16.304;2023-08-06T11:18:47;3.27;;;0.30;;
69854;SDS011;57146;48.140;16.304;2023-08-06T11:21:19;1.80;;;0.30;;
69854;SDS011;57146;48.140;16.304;2023-08-06T11:23:46;2.40;;;0.30;;
69854;SDS011;57146;48.140;16.304;2023-08-06T11:26:18;2.13;;;0.30;;
69854;SDS011;57146;48.140;16.304;2023-08-06T11:28:46;2.33;;;0.50;;
69854;SDS011;57146;48.140;16.304;2023-08-06T11:31:18;2.27;;;0.40;;
69854;SDS011;57146;48.140;16.304;2023-08-06T11:33:50;1.95;;;0.22;;
69854;SDS011;57146;48.140;16.304;2023-08-06T11:36:27;2.30;;;0.30;;
69854;SDS011;57146;48.140;16.304;2023-08-06T11:39:02;2.28;;;0.28;;
69854;SDS011;57146;48.140;16.304;2023-08-06T11:41:31;2.22;;;0.20;;
69854;SDS011;57146;48.140;16.304;2023-08-06T11:43:59;3.23;;;0.40;;
69854;SDS011;57146;48.140;16.304;2023-08-06T11:46:28;2.10;;;0.30;;
69854;SDS011;57146;48.140;16.304;2023-08-06T11:48:55;3.28;;;0.35;;
69854;SDS011;57146;48.140;16.304;2023-08-06T11:51:27;2.53;;;0.40;;
69854;SDS011;57146;48.140;16.304;2023-08-06T11:53:55;2.60;;;0.38;;
69854;SDS011;57146;48.140;16.304;2023-08-06T11:56:26;2.63;;;0.40;;
69854;SDS011;57146;48.140;16.304;2023-08-06T11:58:56;3.13;;;0.45;;
69854;SDS011;57146;48.140;16.304;2023-08-06T12:01:23;2.20;;;0.20;;
69854;SDS011;57146;48.140;16.304;2023-08-06T12:03:50;3.33;;;0.45;;
69854;SDS011;57146;48.140;16.304;2023-08-06T12:06:17;3.75;;;0.60;;
69854;SDS011;57146;48.140;16.304;2023-08-06T12:08:44;2.43;;;0.23;;
69854;SDS011;57146;48.140;16.304;2023-08-06T12:11:11;3.90;;;0.38;;
69854;SDS011;57146;48.140;16.304;2023-08-06T12:13:38;2.30;;;0.30;;
69854;SDS011;57146;48.140;16.304;2023-08-06T12:16:28;2.80;;;0.40;;
69854;SDS011;57146;48.140;16.304;2023-08-06T12:18:55;2.00;;;0.32;;
69854;SDS011;57146;48.140;16.304;2023-08-06T12:21:25;3.03;;;0.40;;
69854;SDS011;57146;48.140;16.304;2023-08-06T12:23:52;3.00;;;0.40;;
69854;SDS011;57146;48.140;16.304;2023-08-06T12:26:20;2.92;;;0.40;;
69854;SDS011;57146;48.140;16.304;2023-08-06T12:28:47;2.88;;;0.50;;
69854;SDS011;57146;48.140;16.304;2023-08-06T12:31:14;3.25;;;0.50;;
69854;SDS011;57146;48.140;16.304;2023-08-06T12:33:44;3.60;;;0.40;;
69854;SDS011;57146;48.140;16.304;2023-08-06T12:36:11;2.22;;;0.35;;
69854;SDS011;57146;48.140;16.304;2023-08-06T12:38:38;3.00;;;0.52;;
69854;SDS011;57146;48.140;16.304;2023-08-06T12:41:06;3.47;;;0.40;;
69854;SDS011;57146;48.140;16.304;2023-08-06T12:43:33;2.58;;;0.40;;
69854;SDS011;57146;48.140;16.304;2023-08-06T12:46:01;2.63;;;0.47;;
69854;SDS011;57146;48.140;16.304;2023-08-06T12:48:32;2.75;;;0.50;;
69854;SDS011;57146;48.140;16.304;2023-08-06T12:50:59;3.05;;;0.60;;
69854;SDS011;57146;48.140;16.304;2023-08-06T12:53:26;3.35;;;0.65;;
69854;SDS011;57146;48.140;16.304;2023-08-06T12:55:53;2.55;;;0.38;;
69854;SDS011;57146;48.140;16.304;2023-08-06T12:58:20;2.57;;;0.40;;
69854;SDS011;57146;48.140;16.304;2023-08-06T13:00:47;3.42;;;0.43;;
69854;SDS011;57146;48.140;16.304;2023-08-06T13:03:15;4.00;;;0.43;;
69854;SDS011;57146;48.140;16.304;2023-08-06T13:05:43;3.50;;;0.70;;
69854;SDS011;57146;48.140;16.304;2023-08-06T13:08:10;3.10;;;0.47;;
69854;SDS011;57146;48.140;16.304;2023-08-06T13:10:37;2.27;;;0.40;;
69854;SDS011;57146;48.140;16.304;2023-08-06T13:13:07;2.80;;;0.65;;
69854;SDS011;57146;48.140;16.304;2023-08-06T13:15:34;3.45;;;0.40;;
69854;SDS011;57146;48.140;16.304;2023-08-06T13:18:02;2.97;;;0.40;;
69854;SDS011;57146;48.140;16.304;2023-08-06T13:20:33;3.10;;;0.38;;
69854;SDS011;57146;48.140;16.304;2023-08-06T13:23:00;2.80;;;0.50;;
69854;SDS011;57146;48.140;16.304;2023-08-06T13:25:27;2.22;;;0.50;;
69854;SDS011;57146;48.140;16.304;2023-08-06T13:27:55;2.47;;;0.43;;
69854;SDS011;57146;48.140;16.304;2023-08-06T13:30:22;2.50;;;0.43;;
69854;SDS011;57146;48.140;16.304;2023-08-06T13:32:50;3.15;;;0.43;;
69854;SDS011;57146;48.140;16.304;2023-08-06T13:35:41;3.57;;;0.50;;
69854;SDS011;57146;48.140;16.304;2023-08-06T13:38:12;3.35;;;0.30;;
69854;SDS011;57146;48.140;16.304;2023-08-06T13:40:39;2.25;;;0.40;;
69854;SDS011;57146;48.140;16.304;2023-08-06T13:43:07;2.40;;;0.30;;
69854;SDS011;57146;48.140;16.304;2023-08-06T13:45:34;1.90;;;0.30;;
69854;SDS011;57146;48.140;16.304;2023-08-06T13:48:05;2.37;;;0.40;;
69854;SDS011;57146;48.140;16.304;2023-08-06T13:50:55;1.92;;;0.17;;
69854;SDS011;57146;48.140;16.304;2023-08-06T13:53:23;1.92;;;0.10;;
69854;SDS011;57146;48.140;16.304;2023-08-06T13:55:52;3.10;;;0.32;;
69854;SDS011;57146;48.140;16.304;2023-08-06T13:58:19;1.63;;;0.10;;
69854;SDS011;57146;48.140;16.304;2023-08-06T14:00:47;2.53;;;0.20;;
69854;SDS011;57146;48.140;16.304;2023-08-06T14:03:14;1.85;;;0.00;;
69854;SDS011;57146;48.140;16.304;2023-08-06T14:05:41;1.38;;;0.10;;
69854;SDS011;57146;48.140;16.304;2023-08-06T14:08:08;3.83;;;0.10;;
69854;SDS011;57146;48.140;16.304;2023-08-06T14:10:37;1.42;;;0.00;;
69854;SDS011;57146;48.140;16.304;2023-08-06T14:13:08;0.90;;;0.00;;
69854;SDS011;57146;48.140;16.304;2023-08-06T14:15:37;1.33;;;0.00;;
69854;SDS011;57146;48.140;16.304;2023-08-06T14:18:04;0.88;;;0.00;;
69854;SDS011;57146;48.140;16.304;2023-08-06T14:20:32;0.65;;;0.00;;
69854;SDS011;57146;48.140;16.304;2023-08-06T14:22:59;0.60;;;0.00;;
69854;SDS011;57146;48.140;16.304;2023-08-06T14:25:27;0.80;;;0.00;;
69854;SDS011;57146;48.140;16.304;2023-08-06T14:27:55;0.40;;;0.00;;
69854;SDS011;57146;48.140;16.304;2023-08-06T14:30:22;3.30;;;0.00;;
69854;SDS011;57146;48.140;16.304;2023-08-06T14:32:49;1.38;;;0.00;;
69854;SDS011;57146;48.140;16.304;2023-08-06T14:35:17;0.60;;;0.00;;
69854;SDS011;57146;48.140;16.304;2023-08-06T14:37:46;1.17;;;0.00;;
69854;SDS011;57146;48.140;16.304;2023-08-06T14:40:16;0.63;;;0.00;;
69854;SDS011;57146;48.140;16.304;2023-08-06T14:42:43;0.63;;;0.00;;
69854;SDS011;57146;48.140;16.304;2023-08-06T14:45:10;0.77;;;0.00;;
69854;SDS011;57146;48.140;16.304;2023-08-06T14:47:40;0.70;;;0.00;;
69854;SDS011;57146;48.140;16.304;2023-08-06T14:50:08;0.97;;;0.00;;
69854;SDS011;57146;48.140;16.304;2023-08-06T14:52:35;0.98;;;0.00;;